sensor_id;sensor_type;location;lat;lon;timestamp;temperature;humidity
10566;DHT22;5331;48.148;16.326;2022-08-14T00:00:09;20.60;1.00
10566;DHT22;5331;48.148;16.326;2022-08-14T00:02:37;20.60;1.00
10566;DHT22;5331;48.148;16.326;2022-08-14T00:05:06;20.60;1.00
10566;DHT22;5331;48.148;16.326;2022-08-14T00:07:35;20.60;1.00
10566;DHT22;5331;48.148;16.326;2022-08-14T00:10:03;20.50;1.00
10566;DHT22;5331;48.148;16.326;2022-08-14T00:12:32;20.50;1.00
10566;DHT22;5331;48.148;16.326;2022-08-14T00:15:00;20.40;1.00
10566;DHT22;5331;48.148;16.326;2022-08-14T00:17:27;20.40;1.00
10566;DHT22;5331;48.148;16.326;2022-08-14T00:19:54;20.30;1.00
10566;DHT22;5331;48.148;16.326;2022-08-14T00:22:21;20.30;1.00
10566;DHT22;5331;48.148;16.326;2022-08-14T00:24:50;20.30;1.00
10566;DHT22;5331;48.148;16.326;2022-08-14T00:27:16;20.30;1.00
10566;DHT22;5331;48.148;16.326;2022-08-14T00:29:43;20.40;1.00
10566;DHT22;5331;48.148;16.326;2022-08-14T00:32:10;20.30;1.00
10566;DHT22;5331;48.148;16.326;2022-08-14T00:34:38;20.30;1.00
10566;DHT22;5331;48.148;16.326;2022-08-14T00:37:05;20.30;1.00
10566;DHT22;5331;48.148;16.326;2022-08-14T00:39:32;20.30;1.00
10566;DHT22;5331;48.148;16.326;2022-08-14T00:42:00;20.30;1.00
10566;DHT22;5331;48.148;16.326;2022-08-14T00:44:27;20.40;1.00
10566;DHT22;5331;48.148;16.326;2022-08-14T00:46:55;20.40;1.00
10566;DHT22;5331;48.148;16.326;2022-08-14T00:49:21;20.40;1.00
10566;DHT22;5331;48.148;16.326;2022-08-14T00:51:48;20.50;1.00
10566;DHT22;5331;48.148;16.326;2022-08-14T00:54:15;20.50;1.00
10566;DHT22;5331;48.148;16.326;2022-08-14T00:56:44;20.50;1.00
10566;DHT22;5331;48.148;16.326;2022-08-14T00:59:12;20.50;1.00
10566;DHT22;5331;48.148;16.326;2022-08-14T01:01:39;20.60;1.00
10566;DHT22;5331;48.148;16.326;2022-08-14T01:04:06;20.70;1.00
10566;DHT22;5331;48.148;16.326;2022-08-14T01:06:33;20.70;1.00
10566;DHT22;5331;48.148;16.326;2022-08-14T01:09:01;20.70;1.00
10566;DHT22;5331;48.148;16.326;2022-08-14T01:11:28;20.80;1.00
10566;DHT22;5331;48.148;16.326;2022-08-14T01:13:55;20.80;1.00
10566;DHT22;5331;48.148;16.326;2022-08-14T01:16:27;20.80;1.00
10566;DHT22;5331;48.148;16.326;2022-08-14T01:18:55;20.80;1.00
10566;DHT22;5331;48.148;16.326;2022-08-14T01:21:41;20.80;1.00
10566;DHT22;5331;48.148;16.326;2022-08-14T01:24:10;20.80;1.00
10566;DHT22;5331;48.148;16.326;2022-08-14T01:26:40;20.70;1.00
10566;DHT22;5331;48.148;16.326;2022-08-14T01:29:08;20.80;1.00
10566;DHT22;5331;48.148;16.326;2022-08-14T01:31:36;20.80;1.00
10566;DHT22;5331;48.148;16.326;2022-08-14T01:34:06;20.90;1.00
10566;DHT22;5331;48.148;16.326;2022-08-14T01:36:33;20.90;1.00
10566;DHT22;5331;48.148;16.326;2022-08-14T01:39:07;20.80;1.00
10566;DHT22;5331;48.148;16.326;2022-08-14T01:41:36;20.80;1.00
10566;DHT22;5331;48.148;16.326;2022-08-14T01:44:05;20.80;1.00
10566;DHT22;5331;48.148;16.326;2022-08-14T01:46:37;20.80;1.00
10566;DHT22;5331;48.148;16.326;2022-08-14T01:49:06;20.80;1.00
10566;DHT22;5331;48.148;16.326;2022-08-14T01:51:35;20.90;1.00
10566;DHT22;5331;48.148;16.326;2022-08-14T01:54:06;20.80;1.00
10566;DHT22;5331;48.148;16.326;2022-08-14T01:56:35;20.80;1.00
10566;DHT22;5331;48.148;16.326;2022-08-14T01:59:04;20.80;1.00
10566;DHT22;5331;48.148;16.326;2022-08-14T02:01:32;20.80;1.00
10566;DHT22;5331;48.148;16.326;2022-08-14T02:04:00;20.90;1.00
10566;DHT22;5331;48.148;16.326;2022-08-14T02:06:28;20.80;1.00
10566;DHT22;5331;48.148;16.326;2022-08-14T02:08:56;20.80;1.00
10566;DHT22;5331;48.148;16.326;2022-08-14T02:11:25;20.80;1.00
10566;DHT22;5331;48.148;16.326;2022-08-14T02:13:55;20.80;1.00
10566;DHT22;5331;48.148;16.326;2022-08-14T02:16:26;20.80;1.00
10566;DHT22;5331;48.148;16.326;2022-08-14T02:18:56;20.90;1.00
10566;DHT22;5331;48.148;16.326;2022-08-14T02:21:24;20.80;1.00
10566;DHT22;5331;48.148;16.326;2022-08-14T02:23:52;20.80;1.00
10566;DHT22;5331;48.148;16.326;2022-08-14T02:26:26;20.80;1.00
10566;DHT22;5331;48.148;16.326;2022-08-14T02:28:56;20.80;1.00
10566;DHT22;5331;48.148;16.326;2022-08-14T02:31:25;20.90;1.00
10566;DHT22;5331;48.148;16.326;2022-08-14T02:33:55;20.90;1.00
10566;DHT22;5331;48.148;16.326;2022-08-14T02:36:22;20.80;1.00
10566;DHT22;5331;48.148;16.326;2022-08-14T02:38:48;20.80;1.00
10566;DHT22;5331;48.148;16.326;2022-08-14T02:41:15;20.80;1.00
10566;DHT22;5331;48.148;16.326;2022-08-14T02:43:44;20.80;1.00
10566;DHT22;5331;48.148;16.326;2022-08-14T02:46:11;20.80;1.00
10566;DHT22;5331;48.148;16.326;2022-08-14T02:48:40;20.80;1.00
10566;DHT22;5331;48.148;16.326;2022-08-14T02:51:09;20.80;1.00
10566;DHT22;5331;48.148;16.326;2022-08-14T02:53:38;20.80;1.00
10566;DHT22;5331;48.148;16.326;2022-08-14T02:56:10;20.80;1.00
10566;DHT22;5331;48.148;16.326;2022-08-14T02:58:41;20.80;1.00
10566;DHT22;5331;48.148;16.326;2022-08-14T03:01:10;20.70;1.00
10566;DHT22;5331;48.148;16.326;2022-08-14T03:03:37;20.80;1.00
10566;DHT22;5331;48.148;16.326;2022-08-14T03:06:06;20.80;1.00
10566;DHT22;5331;48.148;16.326;2022-08-14T03:08:34;20.80;1.00
10566;DHT22;5331;48.148;16.326;2022-08-14T03:11:02;20.80;1.00
10566;DHT22;5331;48.148;16.326;2022-08-14T03:13:32;20.80;1.00
10566;DHT22;5331;48.148;16.326;2022-08-14T03:16:00;20.80;1.00
10566;DHT22;5331;48.148;16.326;2022-08-14T03:18:29;20.80;1.00
10566;DHT22;5331;48.148;16.326;2022-08-14T03:20:57;20.70;1.00
10566;DHT22;5331;48.148;16.326;2022-08-14T03:23:24;20.70;1.00
10566;DHT22;5331;48.148;16.326;2022-08-14T03:25:51;20.70;1.00
10566;DHT22;5331;48.148;16.326;2022-08-14T03:28:18;20.80;1.00
10566;DHT22;5331;48.148;16.326;2022-08-14T03:30:54;20.90;1.00
10566;DHT22;5331;48.148;16.326;2022-08-14T03:33:22;20.90;1.00
10566;DHT22;5331;48.148;16.326;2022-08-14T03:35:50;20.80;1.00
10566;DHT22;5331;48.148;16.326;2022-08-14T03:38:18;20.90;1.00
10566;DHT22;5331;48.148;16.326;2022-08-14T03:40:45;20.90;1.00
10566;DHT22;5331;48.148;16.326;2022-08-14T03:43:12;20.80;1.00
10566;DHT22;5331;48.148;16.326;2022-08-14T03:45:39;20.80;1.00
10566;DHT22;5331;48.148;16.326;2022-08-14T03:48:11;20.80;1.00
10566;DHT22;5331;48.148;16.326;2022-08-14T03:50:40;20.80;1.00
10566;DHT22;5331;48.148;16.326;2022-08-14T03:53:10;20.80;1.00
10566;DHT22;5331;48.148;16.326;2022-08-14T03:55:39;20.90;1.00
10566;DHT22;5331;48.148;16.326;2022-08-14T03:58:07;20.90;1.00
10566;DHT22;5331;48.148;16.326;2022-08-14T04:00:34;20.90;1.00
10566;DHT22;5331;48.148;16.326;2022-08-14T04:03:02;20.90;1.00
10566;DHT22;5331;48.148;16.326;2022-08-14T04:05:31;20.90;1.00
10566;DHT22;5331;48.148;16.326;2022-08-14T04:07:58;20.90;1.00
10566;DHT22;5331;48.148;16.326;2022-08-14T04:10:27;20.90;1.00
10566;DHT22;5331;48.148;16.326;2022-08-14T04:12:54;20.90;1.00
10566;DHT22;5331;48.148;16.326;2022-08-14T04:15:25;20.90;1.00
10566;DHT22;5331;48.148;16.326;2022-08-14T04:17:53;20.90;1.00
10566;DHT22;5331;48.148;16.326;2022-08-14T04:20:20;20.90;1.00
10566;DHT22;5331;48.148;16.326;2022-08-14T04:22:47;20.90;1.00
10566;DHT22;5331;48.148;16.326;2022-08-14T04:25:15;20.90;1.00
10566;DHT22;5331;48.148;16.326;2022-08-14T04:27:43;20.90;1.00
10566;DHT22;5331;48.148;16.326;2022-08-14T04:30:10;20.90;1.00
10566;DHT22;5331;48.148;16.326;2022-08-14T04:32:37;20.80;1.00
10566;DHT22;5331;48.148;16.326;2022-08-14T04:35:05;20.90;1.00
10566;DHT22;5331;48.148;16.326;2022-08-14T04:37:32;20.80;1.00
10566;DHT22;5331;48.148;16.326;2022-08-14T04:40:16;20.80;1.00
10566;DHT22;5331;48.148;16.326;2022-08-14T04:43:02;20.90;1.00
10566;DHT22;5331;48.148;16.326;2022-08-14T04:45:46;20.90;1.00
10566;DHT22;5331;48.148;16.326;2022-08-14T04:48:15;20.90;1.00
10566;DHT22;5331;48.148;16.326;2022-08-14T04:50:44;20.90;1.00
10566;DHT22;5331;48.148;16.326;2022-08-14T04:53:13;20.90;1.00
10566;DHT22;5331;48.148;16.326;2022-08-14T04:55:40;20.90;1.00
10566;DHT22;5331;48.148;16.326;2022-08-14T04:58:10;20.90;1.00
10566;DHT22;5331;48.148;16.326;2022-08-14T05:00:37;21.00;1.00
10566;DHT22;5331;48.148;16.326;2022-08-14T05:03:05;21.00;1.00
10566;DHT22;5331;48.148;16.326;2022-08-14T05:05:32;21.00;1.00
10566;DHT22;5331;48.148;16.326;2022-08-14T05:08:04;21.00;1.00
10566;DHT22;5331;48.148;16.326;2022-08-14T05:10:34;21.00;1.00
10566;DHT22;5331;48.148;16.326;2022-08-14T05:13:01;21.10;1.00
10566;DHT22;5331;48.148;16.326;2022-08-14T05:15:32;21.20;1.00
10566;DHT22;5331;48.148;16.326;2022-08-14T05:18:01;21.30;1.00
10566;DHT22;5331;48.148;16.326;2022-08-14T05:20:28;21.30;1.00
10566;DHT22;5331;48.148;16.326;2022-08-14T05:22:56;21.30;1.00
10566;DHT22;5331;48.148;16.326;2022-08-14T05:25:23;21.40;1.00
10566;DHT22;5331;48.148;16.326;2022-08-14T05:27:51;21.50;1.00
10566;DHT22;5331;48.148;16.326;2022-08-14T05:30:18;21.50;1.00
10566;DHT22;5331;48.148;16.326;2022-08-14T05:32:46;21.60;1.00
10566;DHT22;5331;48.148;16.326;2022-08-14T05:35:13;21.60;1.00
10566;DHT22;5331;48.148;16.326;2022-08-14T05:37:40;21.60;1.00
10566;DHT22;5331;48.148;16.326;2022-08-14T05:40:07;21.50;1.00
10566;DHT22;5331;48.148;16.326;2022-08-14T05:42:36;21.50;1.00
10566;DHT22;5331;48.148;16.326;2022-08-14T05:45:04;21.40;1.00
10566;DHT22;5331;48.148;16.326;2022-08-14T05:47:37;21.50;1.00
10566;DHT22;5331;48.148;16.326;2022-08-14T05:50:08;21.60;1.00
10566;DHT22;5331;48.148;16.326;2022-08-14T05:52:35;21.60;1.00
10566;DHT22;5331;48.148;16.326;2022-08-14T05:55:02;21.70;1.00
10566;DHT22;5331;48.148;16.326;2022-08-14T05:57:29;21.70;1.00
10566;DHT22;5331;48.148;16.326;2022-08-14T05:59:56;21.80;1.00
10566;DHT22;5331;48.148;16.326;2022-08-14T06:02:23;21.80;1.00
10566;DHT22;5331;48.148;16.326;2022-08-14T06:04:50;21.80;1.00
10566;DHT22;5331;48.148;16.326;2022-08-14T06:07:18;21.70;1.00
10566;DHT22;5331;48.148;16.326;2022-08-14T06:09:45;21.80;1.00
10566;DHT22;5331;48.148;16.326;2022-08-14T06:12:12;21.80;1.00
10566;DHT22;5331;48.148;16.326;2022-08-14T06:14:39;21.90;1.00
10566;DHT22;5331;48.148;16.326;2022-08-14T06:17:07;21.90;1.00
10566;DHT22;5331;48.148;16.326;2022-08-14T06:19:34;21.90;1.00
10566;DHT22;5331;48.148;16.326;2022-08-14T06:22:01;22.00;1.00
10566;DHT22;5331;48.148;16.326;2022-08-14T06:24:29;21.90;1.00
10566;DHT22;5331;48.148;16.326;2022-08-14T06:26:56;22.00;1.00
10566;DHT22;5331;48.148;16.326;2022-08-14T06:29:23;21.90;1.00
10566;DHT22;5331;48.148;16.326;2022-08-14T06:31:50;21.90;1.00
10566;DHT22;5331;48.148;16.326;2022-08-14T06:34:17;21.90;1.00
10566;DHT22;5331;48.148;16.326;2022-08-14T06:36:44;21.90;1.00
10566;DHT22;5331;48.148;16.326;2022-08-14T06:39:11;21.80;1.00
10566;DHT22;5331;48.148;16.326;2022-08-14T06:41:39;21.80;1.00
10566;DHT22;5331;48.148;16.326;2022-08-14T06:44:06;21.80;1.00
10566;DHT22;5331;48.148;16.326;2022-08-14T06:46:33;21.80;1.00
10566;DHT22;5331;48.148;16.326;2022-08-14T06:49:00;21.80;1.00
10566;DHT22;5331;48.148;16.326;2022-08-14T06:51:28;21.90;1.00
10566;DHT22;5331;48.148;16.326;2022-08-14T06:53:54;21.90;1.00
10566;DHT22;5331;48.148;16.326;2022-08-14T06:56:21;21.90;1.00
10566;DHT22;5331;48.148;16.326;2022-08-14T06:58:50;22.00;1.00
10566;DHT22;5331;48.148;16.326;2022-08-14T07:01:17;22.00;1.00
10566;DHT22;5331;48.148;16.326;2022-08-14T07:04:01;22.10;1.00
10566;DHT22;5331;48.148;16.326;2022-08-14T07:06:46;22.10;1.00
10566;DHT22;5331;48.148;16.326;2022-08-14T07:09:14;22.20;1.00
10566;DHT22;5331;48.148;16.326;2022-08-14T07:11:41;22.20;1.00
10566;DHT22;5331;48.148;16.326;2022-08-14T07:14:09;22.10;1.00
10566;DHT22;5331;48.148;16.326;2022-08-14T07:16:36;22.10;1.00
10566;DHT22;5331;48.148;16.326;2022-08-14T07:19:04;22.10;1.00
10566;DHT22;5331;48.148;16.326;2022-08-14T07:21:32;22.10;1.00
10566;DHT22;5331;48.148;16.326;2022-08-14T07:23:59;22.10;1.00
10566;DHT22;5331;48.148;16.326;2022-08-14T07:26:26;22.10;1.00
10566;DHT22;5331;48.148;16.326;2022-08-14T07:28:53;22.10;1.00
10566;DHT22;5331;48.148;16.326;2022-08-14T07:31:21;22.10;1.00
10566;DHT22;5331;48.148;16.326;2022-08-14T07:33:51;22.10;1.00
10566;DHT22;5331;48.148;16.326;2022-08-14T07:36:19;22.10;1.00
10566;DHT22;5331;48.148;16.326;2022-08-14T07:38:46;22.10;1.00
10566;DHT22;5331;48.148;16.326;2022-08-14T07:41:13;22.10;1.00
10566;DHT22;5331;48.148;16.326;2022-08-14T07:43:41;22.20;1.00
10566;DHT22;5331;48.148;16.326;2022-08-14T07:46:08;22.20;1.00
10566;DHT22;5331;48.148;16.326;2022-08-14T07:48:40;22.30;1.00
10566;DHT22;5331;48.148;16.326;2022-08-14T07:51:08;22.40;1.00
10566;DHT22;5331;48.148;16.326;2022-08-14T07:53:35;22.40;1.00
10566;DHT22;5331;48.148;16.326;2022-08-14T07:56:02;22.40;1.00
10566;DHT22;5331;48.148;16.326;2022-08-14T07:58:29;22.60;1.00
10566;DHT22;5331;48.148;16.326;2022-08-14T08:00:57;22.70;1.00
10566;DHT22;5331;48.148;16.326;2022-08-14T08:03:25;22.70;1.00
10566;DHT22;5331;48.148;16.326;2022-08-14T08:05:55;22.90;1.00
10566;DHT22;5331;48.148;16.326;2022-08-14T08:08:22;23.10;1.00
10566;DHT22;5331;48.148;16.326;2022-08-14T08:10:52;23.10;1.00
10566;DHT22;5331;48.148;16.326;2022-08-14T08:13:20;23.00;1.00
10566;DHT22;5331;48.148;16.326;2022-08-14T08:15:48;23.10;1.00
10566;DHT22;5331;48.148;16.326;2022-08-14T08:18:16;23.20;1.00
10566;DHT22;5331;48.148;16.326;2022-08-14T08:20:45;23.20;1.00
10566;DHT22;5331;48.148;16.326;2022-08-14T08:23:16;23.30;1.00
10566;DHT22;5331;48.148;16.326;2022-08-14T08:25:44;23.30;1.00
10566;DHT22;5331;48.148;16.326;2022-08-14T08:28:13;23.40;1.00
10566;DHT22;5331;48.148;16.326;2022-08-14T08:30:42;23.30;1.00
10566;DHT22;5331;48.148;16.326;2022-08-14T08:33:12;23.30;1.00
10566;DHT22;5331;48.148;16.326;2022-08-14T08:35:41;23.40;1.00
10566;DHT22;5331;48.148;16.326;2022-08-14T08:38:10;23.50;1.00
10566;DHT22;5331;48.148;16.326;2022-08-14T08:40:40;23.60;1.00
10566;DHT22;5331;48.148;16.326;2022-08-14T08:43:16;23.70;1.00
10566;DHT22;5331;48.148;16.326;2022-08-14T08:45:43;23.80;1.00
10566;DHT22;5331;48.148;16.326;2022-08-14T08:48:10;23.80;1.00
10566;DHT22;5331;48.148;16.326;2022-08-14T08:50:38;23.80;1.00
10566;DHT22;5331;48.148;16.326;2022-08-14T08:53:06;23.90;1.00
10566;DHT22;5331;48.148;16.326;2022-08-14T08:55:35;24.00;1.00
10566;DHT22;5331;48.148;16.326;2022-08-14T08:58:06;24.20;1.00
10566;DHT22;5331;48.148;16.326;2022-08-14T09:00:35;24.20;1.00
10566;DHT22;5331;48.148;16.326;2022-08-14T09:03:04;24.30;1.00
10566;DHT22;5331;48.148;16.326;2022-08-14T09:05:34;24.40;1.00
10566;DHT22;5331;48.148;16.326;2022-08-14T09:08:12;24.40;1.00
10566;DHT22;5331;48.148;16.326;2022-08-14T09:10:39;24.50;1.00
10566;DHT22;5331;48.148;16.326;2022-08-14T09:13:08;24.50;1.00
10566;DHT22;5331;48.148;16.326;2022-08-14T09:15:39;24.50;1.00
10566;DHT22;5331;48.148;16.326;2022-08-14T09:18:07;24.60;1.00
10566;DHT22;5331;48.148;16.326;2022-08-14T09:20:37;24.60;1.00
10566;DHT22;5331;48.148;16.326;2022-08-14T09:23:04;24.60;1.00
10566;DHT22;5331;48.148;16.326;2022-08-14T09:25:32;24.70;1.00
10566;DHT22;5331;48.148;16.326;2022-08-14T09:28:00;24.70;1.00
10566;DHT22;5331;48.148;16.326;2022-08-14T09:30:30;24.80;1.00
10566;DHT22;5331;48.148;16.326;2022-08-14T09:33:16;24.70;1.00
10566;DHT22;5331;48.148;16.326;2022-08-14T09:35:59;24.80;1.00
10566;DHT22;5331;48.148;16.326;2022-08-14T09:38:35;24.70;1.00
10566;DHT22;5331;48.148;16.326;2022-08-14T09:41:10;24.90;1.00
10566;DHT22;5331;48.148;16.326;2022-08-14T09:43:44;25.00;1.00
10566;DHT22;5331;48.148;16.326;2022-08-14T09:46:15;25.10;1.00
10566;DHT22;5331;48.148;16.326;2022-08-14T09:48:42;25.10;1.00
10566;DHT22;5331;48.148;16.326;2022-08-14T09:51:21;25.20;1.00
10566;DHT22;5331;48.148;16.326;2022-08-14T09:54:00;25.30;1.00
10566;DHT22;5331;48.148;16.326;2022-08-14T09:56:27;25.40;1.00
10566;DHT22;5331;48.148;16.326;2022-08-14T09:58:57;25.50;1.00
10566;DHT22;5331;48.148;16.326;2022-08-14T10:01:35;25.30;1.00
10566;DHT22;5331;48.148;16.326;2022-08-14T10:04:17;25.20;1.00
10566;DHT22;5331;48.148;16.326;2022-08-14T10:06:45;25.20;1.00
10566;DHT22;5331;48.148;16.326;2022-08-14T10:09:12;25.20;1.00
10566;DHT22;5331;48.148;16.326;2022-08-14T10:11:41;25.40;1.00
10566;DHT22;5331;48.148;16.326;2022-08-14T10:14:20;25.50;1.00
10566;DHT22;5331;48.148;16.326;2022-08-14T10:16:51;25.50;1.00
10566;DHT22;5331;48.148;16.326;2022-08-14T10:19:20;25.70;1.00
10566;DHT22;5331;48.148;16.326;2022-08-14T10:21:57;25.90;1.00
10566;DHT22;5331;48.148;16.326;2022-08-14T10:24:27;26.00;1.00
10566;DHT22;5331;48.148;16.326;2022-08-14T10:26:56;26.20;1.00
10566;DHT22;5331;48.148;16.326;2022-08-14T10:29:31;26.40;1.00
10566;DHT22;5331;48.148;16.326;2022-08-14T10:32:00;26.60;1.00
10566;DHT22;5331;48.148;16.326;2022-08-14T10:34:32;26.70;1.00
10566;DHT22;5331;48.148;16.326;2022-08-14T10:37:04;26.70;1.00
10566;DHT22;5331;48.148;16.326;2022-08-14T10:39:34;26.80;1.00
10566;DHT22;5331;48.148;16.326;2022-08-14T10:42:04;26.90;1.00
10566;DHT22;5331;48.148;16.326;2022-08-14T10:44:33;26.80;1.00
10566;DHT22;5331;48.148;16.326;2022-08-14T10:47:02;26.70;1.00
10566;DHT22;5331;48.148;16.326;2022-08-14T10:49:32;26.70;1.00
10566;DHT22;5331;48.148;16.326;2022-08-14T10:52:02;26.70;1.00
10566;DHT22;5331;48.148;16.326;2022-08-14T10:54:35;26.60;1.00
10566;DHT22;5331;48.148;16.326;2022-08-14T10:57:11;26.60;1.00
10566;DHT22;5331;48.148;16.326;2022-08-14T10:59:44;26.60;1.00
10566;DHT22;5331;48.148;16.326;2022-08-14T11:02:26;26.70;1.00
10566;DHT22;5331;48.148;16.326;2022-08-14T11:05:04;26.70;1.00
10566;DHT22;5331;48.148;16.326;2022-08-14T11:07:32;26.70;1.00
10566;DHT22;5331;48.148;16.326;2022-08-14T11:10:02;26.80;1.00
10566;DHT22;5331;48.148;16.326;2022-08-14T11:12:39;26.80;1.00
10566;DHT22;5331;48.148;16.326;2022-08-14T11:15:10;26.90;1.00
10566;DHT22;5331;48.148;16.326;2022-08-14T11:17:38;26.90;1.00
10566;DHT22;5331;48.148;16.326;2022-08-14T11:20:07;26.90;1.00
10566;DHT22;5331;48.148;16.326;2022-08-14T11:22:37;27.00;1.00
10566;DHT22;5331;48.148;16.326;2022-08-14T11:25:08;27.00;1.00
10566;DHT22;5331;48.148;16.326;2022-08-14T11:27:37;27.20;1.00
10566;DHT22;5331;48.148;16.326;2022-08-14T11:30:07;27.20;1.00
10566;DHT22;5331;48.148;16.326;2022-08-14T11:32:34;27.20;1.00
10566;DHT22;5331;48.148;16.326;2022-08-14T11:35:02;27.30;1.00
10566;DHT22;5331;48.148;16.326;2022-08-14T11:37:30;27.40;1.00
10566;DHT22;5331;48.148;16.326;2022-08-14T11:39:58;27.50;1.00
10566;DHT22;5331;48.148;16.326;2022-08-14T11:42:26;27.50;1.00
10566;DHT22;5331;48.148;16.326;2022-08-14T11:44:57;27.60;1.00
10566;DHT22;5331;48.148;16.326;2022-08-14T11:47:24;27.60;1.00
10566;DHT22;5331;48.148;16.326;2022-08-14T11:49:51;27.60;1.00
10566;DHT22;5331;48.148;16.326;2022-08-14T11:52:19;27.40;1.00
10566;DHT22;5331;48.148;16.326;2022-08-14T11:54:56;27.50;1.00
10566;DHT22;5331;48.148;16.326;2022-08-14T11:57:25;27.50;1.00
10566;DHT22;5331;48.148;16.326;2022-08-14T12:00:00;27.60;1.00
10566;DHT22;5331;48.148;16.326;2022-08-14T12:02:28;27.50;1.00
10566;DHT22;5331;48.148;16.326;2022-08-14T12:04:55;27.50;1.00
10566;DHT22;5331;48.148;16.326;2022-08-14T12:07:23;27.50;1.00
10566;DHT22;5331;48.148;16.326;2022-08-14T12:09:53;27.60;1.00
10566;DHT22;5331;48.148;16.326;2022-08-14T12:12:21;27.80;1.00
10566;DHT22;5331;48.148;16.326;2022-08-14T12:14:50;28.00;1.00
10566;DHT22;5331;48.148;16.326;2022-08-14T12:17:21;28.00;1.00
10566;DHT22;5331;48.148;16.326;2022-08-14T12:19:50;27.70;1.00
10566;DHT22;5331;48.148;16.326;2022-08-14T12:22:18;27.90;1.00
10566;DHT22;5331;48.148;16.326;2022-08-14T12:24:49;28.40;1.00
10566;DHT22;5331;48.148;16.326;2022-08-14T12:27:16;28.90;1.00
10566;DHT22;5331;48.148;16.326;2022-08-14T12:29:51;29.20;1.00
10566;DHT22;5331;48.148;16.326;2022-08-14T12:32:18;29.40;1.00
10566;DHT22;5331;48.148;16.326;2022-08-14T12:34:52;29.10;1.00
10566;DHT22;5331;48.148;16.326;2022-08-14T12:37:28;29.00;1.00
10566;DHT22;5331;48.148;16.326;2022-08-14T12:40:09;29.10;1.00
10566;DHT22;5331;48.148;16.326;2022-08-14T12:42:36;29.20;1.00
10566;DHT22;5331;48.148;16.326;2022-08-14T12:45:05;29.40;1.00
10566;DHT22;5331;48.148;16.326;2022-08-14T12:47:33;29.40;1.00
10566;DHT22;5331;48.148;16.326;2022-08-14T12:49:59;29.50;1.00
10566;DHT22;5331;48.148;16.326;2022-08-14T12:52:28;29.50;1.00
10566;DHT22;5331;48.148;16.326;2022-08-14T12:55:00;29.60;1.00
10566;DHT22;5331;48.148;16.326;2022-08-14T12:57:37;29.70;1.00
10566;DHT22;5331;48.148;16.326;2022-08-14T13:00:12;29.80;1.00
10566;DHT22;5331;48.148;16.326;2022-08-14T13:02:40;29.80;1.00
10566;DHT22;5331;48.148;16.326;2022-08-14T13:05:08;29.70;1.00
10566;DHT22;5331;48.148;16.326;2022-08-14T13:07:37;29.70;1.00
10566;DHT22;5331;48.148;16.326;2022-08-14T13:10:06;29.80;1.00
10566;DHT22;5331;48.148;16.326;2022-08-14T13:12:37;29.70;1.00
10566;DHT22;5331;48.148;16.326;2022-08-14T13:15:06;29.60;1.00
10566;DHT22;5331;48.148;16.326;2022-08-14T13:17:39;29.60;1.00
10566;DHT22;5331;48.148;16.326;2022-08-14T13:20:07;29.70;1.00
10566;DHT22;5331;48.148;16.326;2022-08-14T13:22:37;29.70;1.00
10566;DHT22;5331;48.148;16.326;2022-08-14T13:25:07;29.70;1.00
10566;DHT22;5331;48.148;16.326;2022-08-14T13:27:36;29.80;1.00
10566;DHT22;5331;48.148;16.326;2022-08-14T13:30:05;29.50;1.00
10566;DHT22;5331;48.148;16.326;2022-08-14T13:32:32;29.60;1.00
10566;DHT22;5331;48.148;16.326;2022-08-14T13:35:04;29.50;1.00
10566;DHT22;5331;48.148;16.326;2022-08-14T13:37:32;29.40;1.00
10566;DHT22;5331;48.148;16.326;2022-08-14T13:39:59;28.90;1.00
10566;DHT22;5331;48.148;16.326;2022-08-14T13:42:27;28.80;1.00
10566;DHT22;5331;48.148;16.326;2022-08-14T13:44:56;28.60;1.00
10566;DHT22;5331;48.148;16.326;2022-08-14T13:47:25;28.20;1.00
10566;DHT22;5331;48.148;16.326;2022-08-14T13:49:55;28.50;1.00
10566;DHT22;5331;48.148;16.326;2022-08-14T13:52:22;28.60;1.00
10566;DHT22;5331;48.148;16.326;2022-08-14T13:54:52;28.80;1.00
10566;DHT22;5331;48.148;16.326;2022-08-14T13:57:19;28.90;1.00
10566;DHT22;5331;48.148;16.326;2022-08-14T13:59:49;28.70;1.00
10566;DHT22;5331;48.148;16.326;2022-08-14T14:02:18;28.90;1.00
10566;DHT22;5331;48.148;16.326;2022-08-14T14:04:47;28.90;1.00
10566;DHT22;5331;48.148;16.326;2022-08-14T14:07:18;29.10;1.00
10566;DHT22;5331;48.148;16.326;2022-08-14T14:09:47;28.90;1.00
10566;DHT22;5331;48.148;16.326;2022-08-14T14:12:15;28.90;1.00
10566;DHT22;5331;48.148;16.326;2022-08-14T14:14:42;28.60;1.00
10566;DHT22;5331;48.148;16.326;2022-08-14T14:17:11;28.30;1.00
10566;DHT22;5331;48.148;16.326;2022-08-14T14:19:42;28.30;1.00
10566;DHT22;5331;48.148;16.326;2022-08-14T14:22:12;28.40;1.00
10566;DHT22;5331;48.148;16.326;2022-08-14T14:24:41;28.40;1.00
10566;DHT22;5331;48.148;16.326;2022-08-14T14:27:08;28.40;1.00
10566;DHT22;5331;48.148;16.326;2022-08-14T14:29:35;28.30;1.00
10566;DHT22;5331;48.148;16.326;2022-08-14T14:32:03;28.10;1.00
10566;DHT22;5331;48.148;16.326;2022-08-14T14:34:30;27.90;1.00
10566;DHT22;5331;48.148;16.326;2022-08-14T14:37:01;27.90;1.00
10566;DHT22;5331;48.148;16.326;2022-08-14T14:39:30;28.00;1.00
10566;DHT22;5331;48.148;16.326;2022-08-14T14:41:58;28.20;1.00
10566;DHT22;5331;48.148;16.326;2022-08-14T14:44:27;28.40;1.00
10566;DHT22;5331;48.148;16.326;2022-08-14T14:46:57;28.60;1.00
10566;DHT22;5331;48.148;16.326;2022-08-14T14:49:27;28.80;1.00
10566;DHT22;5331;48.148;16.326;2022-08-14T14:51:54;28.90;1.00
10566;DHT22;5331;48.148;16.326;2022-08-14T14:54:23;28.90;1.00
10566;DHT22;5331;48.148;16.326;2022-08-14T14:56:50;28.90;1.00
10566;DHT22;5331;48.148;16.326;2022-08-14T14:59:18;29.10;1.00
10566;DHT22;5331;48.148;16.326;2022-08-14T15:01:48;28.90;1.00
10566;DHT22;5331;48.148;16.326;2022-08-14T15:04:15;28.80;1.00
10566;DHT22;5331;48.148;16.326;2022-08-14T15:06:43;28.90;1.00
10566;DHT22;5331;48.148;16.326;2022-08-14T15:09:10;28.90;1.00
10566;DHT22;5331;48.148;16.326;2022-08-14T15:11:38;28.90;1.00
10566;DHT22;5331;48.148;16.326;2022-08-14T15:14:06;28.80;1.00
10566;DHT22;5331;48.148;16.326;2022-08-14T15:16:33;28.60;1.00
10566;DHT22;5331;48.148;16.326;2022-08-14T15:19:00;28.70;1.00
10566;DHT22;5331;48.148;16.326;2022-08-14T15:21:27;28.70;1.00
10566;DHT22;5331;48.148;16.326;2022-08-14T15:23:54;28.80;1.00
10566;DHT22;5331;48.148;16.326;2022-08-14T15:26:21;28.90;1.00
10566;DHT22;5331;48.148;16.326;2022-08-14T15:28:49;29.00;1.00
10566;DHT22;5331;48.148;16.326;2022-08-14T15:31:17;29.00;1.00
10566;DHT22;5331;48.148;16.326;2022-08-14T15:33:43;29.00;1.00
10566;DHT22;5331;48.148;16.326;2022-08-14T15:36:28;29.10;1.00
10566;DHT22;5331;48.148;16.326;2022-08-14T15:38:56;29.20;1.00
10566;DHT22;5331;48.148;16.326;2022-08-14T15:41:23;29.10;1.00
10566;DHT22;5331;48.148;16.326;2022-08-14T15:43:52;29.10;1.00
10566;DHT22;5331;48.148;16.326;2022-08-14T15:46:24;29.10;1.00
10566;DHT22;5331;48.148;16.326;2022-08-14T15:48:51;28.80;1.00
10566;DHT22;5331;48.148;16.326;2022-08-14T15:51:18;28.90;1.00
10566;DHT22;5331;48.148;16.326;2022-08-14T15:53:45;28.90;1.00
10566;DHT22;5331;48.148;16.326;2022-08-14T15:56:14;28.90;1.00